createdAt,value
2019-04-21T00:00:14.881Z,74.50
2019-04-21T00:02:44.275Z,74.30
2019-04-21T00:05:47.358Z,77.00
2019-04-21T00:08:16.616Z,75.70
2019-04-21T00:10:36.413Z,74.90
2019-04-21T00:12:57.117Z,75.20
2019-04-21T00:15:24.478Z,74.90
2019-04-21T00:17:50.829Z,76.00
2019-04-21T00:20:26.956Z,74.90
2019-04-21T00:23:09.188Z,75.70
2019-04-21T00:25:35.659Z,76.20
2019-04-21T00:28:12.310Z,75.30
2019-04-21T00:30:43.075Z,75.50
2019-04-21T00:33:00.209Z,76.30
2019-04-21T00:35:25.870Z,74.80
2019-04-21T00:38:15.441Z,77.70
2019-04-21T00:40:45.704Z,78.50
2019-04-21T00:43:13.591Z,76.70
2019-04-21T00:45:34.919Z,76.60
2019-04-21T00:48:16.930Z,77.30
2019-04-21T00:51:03.989Z,77.60
2019-04-21T00:53:23.620Z,77.10
2019-04-21T00:55:59.852Z,77.50
2019-04-21T00:58:29.886Z,75.80
2019-04-21T01:00:57.053Z,76.70
2019-04-21T01:03:25.843Z,77.40
2019-04-21T01:06:13.104Z,77.20
2019-04-21T01:08:30.266Z,77.90
2019-04-21T01:10:49.236Z,77.50
2019-04-21T01:13:27.328Z,77.10
2019-04-21T01:16:13.802Z,76.20
2019-04-21T01:18:26.168Z,76.70
2019-04-21T01:20:34.482Z,77.80
2019-04-21T01:23:04.244Z,77.20
2019-04-21T01:25:39.138Z,79.70
2019-04-21T01:28:19.924Z,79.00
2019-04-21T01:30:54.923Z,78.70
2019-04-21T01:33:27.812Z,78.70
2019-04-21T01:35:55.265Z,78.80
2019-04-21T01:38:32.746Z,77.60
2019-04-21T01:40:59.169Z,78.70
2019-04-21T01:43:23.448Z,78.70
2019-04-21T01:45:56.525Z,79.50
2019-04-21T01:48:21.550Z,80.00
2019-04-21T01:50:52.223Z,79.30
2019-04-21T01:53:36.811Z,80.30
2019-04-21T01:56:17.236Z,78.70
2019-04-21T01:58:39.361Z,78.80
2019-04-21T02:01:21.672Z,78.10
2019-04-21T02:03:53.207Z,79.90
2019-04-21T02:06:20.984Z,80.00
2019-04-21T02:08:48.800Z,79.60
2019-04-21T02:11:26.435Z,79.70
2019-04-21T02:13:58.891Z,78.30
2019-04-21T02:16:23.291Z,78.80
2019-04-21T02:18:52.595Z,80.80
2019-04-21T02:21:17.810Z,79.10
2019-04-21T02:23:54.310Z,80.30
2019-04-21T02:26:22.629Z,81.40
2019-04-21T02:28:56.512Z,81.30
2019-04-21T02:36:50.801Z,81.60
2019-04-21T02:44:08.239Z,81.10
2019-04-21T02:49:10.368Z,81.60
2019-04-21T02:54:40.648Z,81.50
2019-04-21T02:56:48.712Z,81.40
2019-04-21T02:59:28.912Z,81.70
2019-04-21T03:01:56.237Z,81.00
2019-04-21T03:04:28.023Z,82.30
2019-04-21T03:07:25.022Z,82.80
2019-04-21T03:09:39.449Z,83.60
2019-04-21T03:12:11.549Z,83.50
2019-04-21T03:14:58.183Z,82.10
2019-04-21T03:17:17.871Z,82.00
2019-04-21T03:25:04.433Z,84.70
2019-04-21T03:29:48.212Z,84.90
2019-04-21T03:37:16.985Z,83.80
2019-04-21T03:39:45.531Z,86.20
2019-04-21T03:44:45.650Z,85.40
2019-04-21T03:49:54.706Z,87.10
2019-04-21T03:55:41.491Z,86.10
2019-04-21T04:00:35.282Z,87.00
2019-04-21T04:03:07.623Z,88.80
2019-04-21T04:08:28.675Z,87.50
2019-04-21T04:10:50.315Z,87.20
2019-04-21T04:13:19.923Z,87.60
2019-04-21T04:15:51.464Z,88.40
2019-04-21T04:18:21.056Z,88.00
2019-04-21T04:21:07.652Z,88.70
2019-04-21T04:25:49.663Z,88.20
2019-04-21T04:28:40.544Z,89.10
2019-04-21T04:30:46.946Z,88.40
2019-04-21T04:33:22.682Z,87.30
2019-04-21T04:38:24.139Z,88.20
2019-04-21T04:41:28.935Z,89.40
2019-04-21T04:43:37.138Z,90.00
2019-04-21T04:48:37.564Z,89.50
2019-04-21T04:53:43.943Z,89.60
2019-04-21T05:09:05.544Z,90.30
2019-04-21T05:14:02.642Z,90.30
2019-04-21T05:16:37.020Z,90.10
2019-04-21T05:19:02.284Z,87.80
2019-04-21T05:21:31.891Z,89.50
2019-04-21T05:23:49.454Z,90.40
2019-04-21T05:26:10.869Z,90.00
2019-04-21T05:28:40.892Z,90.60
2019-04-21T05:31:34.635Z,90.50
2019-04-21T05:34:04.745Z,89.40
2019-04-21T05:36:38.193Z,88.10
2019-04-21T05:39:21.438Z,87.20
2019-04-21T05:41:43.198Z,87.40
2019-04-21T05:44:40.005Z,87.90
2019-04-21T05:47:07.865Z,89.30
2019-04-21T05:49:29.467Z,89.90
2019-04-21T05:51:57.395Z,90.10
2019-04-21T05:54:42.295Z,89.20
2019-04-21T05:57:01.090Z,90.10
2019-04-21T05:59:33.953Z,90.40
2019-04-21T06:02:15.287Z,90.00
2019-04-21T06:04:46.922Z,89.80
2019-04-21T06:07:13.226Z,86.90
2019-04-21T06:09:37.243Z,86.00
2019-04-21T06:12:05.918Z,84.10
2019-04-21T06:14:45.083Z,83.40
2019-04-21T06:17:08.094Z,85.30
2019-04-21T06:19:43.464Z,84.80
2019-04-21T06:22:06.439Z,85.60
2019-04-21T06:24:52.257Z,82.20
2019-04-21T06:27:11.576Z,79.40
2019-04-21T06:29:39.362Z,78.00
2019-04-21T06:34:53.151Z,77.50
2019-04-21T06:37:35.996Z,77.40
2019-04-21T06:39:54.264Z,77.50
2019-04-21T06:42:09.759Z,77.10
2019-04-21T06:44:48.374Z,76.90
2019-04-21T06:47:16.319Z,77.00
2019-04-21T06:49:41.224Z,77.40
2019-04-21T06:52:33.564Z,76.60
2019-04-21T06:55:02.658Z,77.10
2019-04-21T06:57:18.662Z,77.40
2019-04-21T06:59:41.868Z,76.10
2019-04-21T07:02:30.580Z,76.70
2019-04-21T07:04:46.906Z,74.40
2019-04-21T07:07:14.411Z,77.60
2019-04-21T07:09:42.733Z,74.90
2019-04-21T07:12:13.293Z,75.30
2019-04-21T07:14:44.188Z,75.60
2019-04-21T07:17:20.228Z,76.90
2019-04-21T07:19:48.364Z,78.00
2019-04-21T07:22:19.466Z,77.70
2019-04-21T07:24:46.114Z,76.40
2019-04-21T07:27:17.602Z,75.90
2019-04-21T07:29:50.573Z,75.00
2019-04-21T07:32:18.055Z,75.90
2019-04-21T07:34:45.924Z,74.60
2019-04-21T07:37:10.267Z,75.10
2019-04-21T07:39:46.659Z,76.20
2019-04-21T07:42:13.737Z,75.70
2019-04-21T07:44:41.872Z,77.00
2019-04-21T07:47:15.574Z,76.20
2019-04-21T07:49:59.198Z,76.00
2019-04-21T07:52:33.571Z,77.60
2019-04-21T07:55:05.615Z,75.20
2019-04-21T07:57:23.557Z,75.60
2019-04-21T08:00:07.113Z,74.50
2019-04-21T08:02:29.530Z,72.70
2019-04-21T08:05:08.872Z,70.90
2019-04-21T08:07:44.712Z,70.80
2019-04-21T08:09:58.704Z,70.60
2019-04-21T08:12:24.621Z,68.80
2019-04-21T08:15:13.976Z,68.20
2019-04-21T08:17:36.478Z,66.50
2019-04-21T08:20:00.565Z,67.60
2019-04-21T08:22:37.947Z,67.30
2019-04-21T08:25:02.947Z,66.20
2019-04-21T08:27:35.152Z,66.00
2019-04-21T08:30:05.118Z,65.70
2019-04-21T08:32:44.708Z,67.80
2019-04-21T08:35:20.729Z,66.80
2019-04-21T08:37:40.503Z,67.70
2019-04-21T08:42:38.393Z,70.50
2019-04-21T08:45:09.440Z,69.70
2019-04-21T08:47:39.701Z,68.90
2019-04-21T08:50:09.621Z,67.30
2019-04-21T08:55:15.621Z,70.20
2019-04-21T08:58:00.832Z,69.80
2019-04-21T09:00:26.027Z,68.90
2019-04-21T09:02:57.574Z,70.30
2019-04-21T09:05:23.487Z,70.70
2019-04-21T09:07:57.156Z,74.40
2019-04-21T09:10:33.076Z,72.40
2019-04-21T09:13:00.180Z,69.80
2019-04-21T09:15:24.886Z,69.90
2019-04-21T09:17:53.393Z,71.30
2019-04-21T09:20:32.839Z,72.50
2019-04-21T09:23:03.585Z,69.60
2019-04-21T09:25:33.396Z,67.50
2019-04-21T09:28:02.352Z,68.90
2019-04-21T09:30:12.961Z,70.30
2019-04-21T09:32:42.470Z,69.30
2019-04-21T09:35:14.858Z,72.40
2019-04-21T09:37:51.626Z,71.90
2019-04-21T09:40:15.244Z,70.50
2019-04-21T09:42:53.193Z,70.70
2019-04-21T09:45:14.294Z,66.10
2019-04-21T09:47:52.499Z,67.70
2019-04-21T09:50:13.590Z,65.70
2019-04-21T09:52:52.272Z,70.40
2019-04-21T09:55:18.930Z,72.50
2019-04-21T09:57:51.573Z,69.80
2019-04-21T10:00:20.635Z,68.00
2019-04-21T10:02:53.475Z,67.70
2019-04-21T10:05:14.593Z,66.10
2019-04-21T10:07:44.269Z,63.10
2019-04-21T10:10:13.242Z,62.70
2019-04-21T10:12:41.745Z,67.00
2019-04-21T10:15:10.745Z,63.40
2019-04-21T10:17:54.045Z,64.50
2019-04-21T10:20:22.749Z,68.80
2019-04-21T10:22:51.162Z,64.10
2019-04-21T10:25:20.915Z,65.50
2019-04-21T10:27:49.587Z,63.00
2019-04-21T10:30:18.490Z,67.90
2019-04-21T10:32:48.200Z,64.30
2019-04-21T10:35:20.679Z,63.00
2019-04-21T10:38:01.445Z,65.90
2019-04-21T10:40:18.286Z,66.70
2019-04-21T10:42:48.028Z,66.70
2019-04-21T10:45:17.102Z,62.20
2019-04-21T10:47:47.237Z,62.10
2019-04-21T10:50:16.386Z,60.30
2019-04-21T10:53:03.002Z,63.90
2019-04-21T10:55:48.946Z,70.60
2019-04-21T10:58:22.397Z,70.40
2019-04-21T11:00:52.806Z,70.80
2019-04-21T11:03:35.383Z,65.30
2019-04-21T11:06:06.590Z,67.70
2019-04-21T11:08:41.565Z,70.00
2019-04-21T11:11:07.867Z,66.80
2019-04-21T11:13:37.026Z,66.20
2019-04-21T11:16:06.010Z,69.10
2019-04-21T11:18:35.765Z,70.60
2019-04-21T11:21:05.034Z,67.10
2019-04-21T11:23:33.725Z,65.00
2019-04-21T11:26:02.531Z,63.00
2019-04-21T11:28:31.239Z,62.90
2019-04-21T11:31:00.601Z,62.50
2019-04-21T11:33:29.113Z,67.00
2019-04-21T11:35:57.706Z,68.80
2019-04-21T11:39:02.388Z,70.00
2019-04-21T11:41:18.005Z,63.00
2019-04-21T11:43:48.838Z,61.00
2019-04-21T11:46:18.320Z,67.90
2019-04-21T11:48:48.261Z,63.30
2019-04-21T11:51:17.246Z,62.60
2019-04-21T11:53:46.584Z,67.60
2019-04-21T11:56:15.225Z,63.80
2019-04-21T11:58:43.909Z,63.80
2019-04-21T12:01:13.751Z,62.70
2019-04-21T12:03:42.297Z,69.00
2019-04-21T12:06:11.177Z,68.30
2019-04-21T12:08:44.074Z,59.50
2019-04-21T12:11:11.397Z,59.50
2019-04-21T12:13:40.358Z,69.10
2019-04-21T12:16:10.686Z,67.00
2019-04-21T12:18:40.697Z,67.00
2019-04-21T12:21:09.616Z,68.40
2019-04-21T12:23:38.458Z,66.60
2019-04-21T12:26:07.432Z,65.50
2019-04-21T12:28:37.522Z,66.70
2019-04-21T12:31:07.726Z,68.90
2019-04-21T12:33:38.122Z,66.30
2019-04-21T12:36:06.801Z,67.30
2019-04-21T12:38:44.708Z,69.00
2019-04-21T12:41:06.607Z,61.30
2019-04-21T12:43:35.270Z,57.00
2019-04-21T12:46:04.290Z,62.60
2019-04-21T12:48:33.805Z,61.30
2019-04-21T12:51:03.877Z,67.70
2019-04-21T12:53:33.843Z,66.50
2019-04-21T12:56:02.546Z,62.10
2019-04-21T12:58:31.326Z,68.30
2019-04-21T13:01:00.942Z,64.90
2019-04-21T13:03:30.417Z,61.40
2019-04-21T13:05:59.038Z,63.90
2019-04-21T13:08:27.448Z,59.50
2019-04-21T13:10:56.270Z,62.90
2019-04-21T13:13:26.040Z,62.90
2019-04-21T13:15:55.780Z,62.10
2019-04-21T13:18:24.341Z,59.10
2019-04-21T13:20:53.885Z,60.40
2019-04-21T13:23:23.169Z,66.10
2019-04-21T13:25:51.948Z,60.20
2019-04-21T13:28:20.787Z,65.40
2019-04-21T13:30:50.633Z,58.10
2019-04-21T13:33:19.219Z,59.70
2019-04-21T13:35:48.851Z,57.50
2019-04-21T13:38:28.734Z,65.50
2019-04-21T13:41:13.195Z,67.00
2019-04-21T13:43:29.356Z,58.90
2019-04-21T13:45:59.617Z,64.20
2019-04-21T13:48:28.671Z,67.30
2019-04-21T13:50:57.509Z,61.40
2019-04-21T13:53:27.097Z,65.80
2019-04-21T13:55:56.436Z,61.80
2019-04-21T13:58:26.350Z,57.40
2019-04-21T14:00:56.069Z,65.50
2019-04-21T14:03:26.562Z,67.30
2019-04-21T14:06:14.387Z,66.40
2019-04-21T14:08:44.977Z,66.30
2019-04-21T14:11:13.435Z,63.10
2019-04-21T14:13:42.570Z,59.50
2019-04-21T14:16:11.801Z,56.40
2019-04-21T14:18:40.653Z,65.50
2019-04-21T14:21:09.238Z,64.80
2019-04-21T14:23:43.393Z,65.00
2019-04-21T14:26:08.691Z,63.00
2019-04-21T14:28:37.239Z,68.70
2019-04-21T14:31:06.271Z,68.80
2019-04-21T14:33:36.225Z,68.90
2019-04-21T14:36:05.227Z,62.90
2019-04-21T14:38:34.463Z,65.50
2019-04-21T14:41:04.043Z,63.40
2019-04-21T14:43:34.091Z,69.80
2019-04-21T14:46:06.980Z,70.20
2019-04-21T14:48:47.197Z,70.50
2019-04-21T14:51:18.837Z,65.90
2019-04-21T14:53:49.853Z,70.10
2019-04-21T14:56:19.384Z,68.80
2019-04-21T14:58:48.777Z,66.80
2019-04-21T15:01:17.825Z,70.80
2019-04-21T15:03:47.860Z,63.70
2019-04-21T15:06:16.315Z,65.70
2019-04-21T15:08:44.970Z,59.20
2019-04-21T15:11:13.957Z,63.20
2019-04-21T15:13:43.837Z,68.80
2019-04-21T15:16:13.085Z,69.50
2019-04-21T15:18:41.922Z,68.50
2019-04-21T15:21:11.132Z,69.90
2019-04-21T15:23:40.308Z,67.20
2019-04-21T15:26:10.283Z,67.20
2019-04-21T15:28:40.515Z,65.00
2019-04-21T15:31:12.635Z,65.40
2019-04-21T15:33:39.240Z,69.80
2019-04-21T15:36:09.071Z,64.00
2019-04-21T15:38:38.063Z,66.10
2019-04-21T15:41:10.453Z,70.40
2019-04-21T15:43:38.452Z,68.50
2019-04-21T15:46:08.818Z,64.30
2019-04-21T15:48:37.273Z,66.80
2019-04-21T15:51:08.508Z,67.10
2019-04-21T15:53:37.696Z,68.10
2019-04-21T15:56:11.018Z,64.30
2019-04-21T16:01:22.845Z,62.90
2019-04-21T16:03:52.518Z,61.50
2019-04-21T16:06:21.823Z,67.10
2019-04-21T16:08:53.683Z,64.10
2019-04-21T16:11:21.947Z,68.20
2019-04-21T16:13:52.017Z,64.00
2019-04-21T16:16:23.552Z,64.30
2019-04-21T16:18:52.139Z,63.30
2019-04-21T16:21:22.074Z,67.10
2019-04-21T16:23:50.793Z,65.90
2019-04-21T16:26:20.321Z,63.30
2019-04-21T16:28:49.116Z,64.50
2019-04-21T16:31:18.475Z,68.20
2019-04-21T16:33:47.184Z,67.10
2019-04-21T16:36:17.108Z,66.40
2019-04-21T16:38:47.263Z,67.70
2019-04-21T16:41:16.205Z,67.00
2019-04-21T16:43:45.020Z,63.70
2019-04-21T16:46:13.854Z,67.80
2019-04-21T16:48:42.260Z,67.20
2019-04-21T16:51:10.672Z,65.80
2019-04-21T16:53:41.864Z,65.20
2019-04-21T16:56:15.295Z,66.10
2019-04-21T16:58:48.473Z,66.70
2019-04-21T17:01:20.198Z,65.40
2019-04-21T17:03:50.233Z,64.80
2019-04-21T17:06:19.332Z,63.50
2019-04-21T17:08:47.896Z,65.30
2019-04-21T17:11:20.695Z,64.80
2019-04-21T17:13:47.385Z,65.20
2019-04-21T17:16:44.915Z,66.70
2019-04-21T17:18:58.805Z,66.20
2019-04-21T17:21:16.792Z,64.20
2019-04-21T17:23:46.413Z,65.40
2019-04-21T17:26:15.293Z,65.70
2019-04-21T17:28:45.018Z,65.40
2019-04-21T17:31:13.900Z,65.00
2019-04-21T17:33:43.853Z,65.60
2019-04-21T17:36:12.780Z,67.30
2019-04-21T17:38:41.851Z,66.90
2019-04-21T17:41:21.338Z,68.80
2019-04-21T17:43:41.632Z,65.60
2019-04-21T17:46:13.610Z,66.60
2019-04-21T17:48:40.735Z,64.80
2019-04-21T17:51:11.783Z,69.50
2019-04-21T17:53:51.632Z,71.50
2019-04-21T17:56:41.315Z,70.40
2019-04-21T17:59:15.204Z,68.20
2019-04-21T18:01:42.382Z,71.50
2019-04-21T18:04:10.899Z,69.50
2019-04-21T18:06:59.380Z,69.80
2019-04-21T18:09:47.095Z,71.30
2019-04-21T18:12:06.822Z,73.20
2019-04-21T18:14:18.978Z,72.30
2019-04-21T18:17:08.614Z,71.20
2019-04-21T18:19:43.134Z,73.90
2019-04-21T18:22:10.696Z,73.80
2019-04-21T18:24:54.209Z,75.10
2019-04-21T18:27:15.626Z,73.30
2019-04-21T18:29:44.536Z,73.80
2019-04-21T18:32:17.564Z,72.70
2019-04-21T18:34:52.603Z,74.20
2019-04-21T18:37:38.383Z,73.20
2019-04-21T18:40:09.717Z,73.30
2019-04-21T18:42:53.214Z,74.90
2019-04-21T18:48:10.995Z,73.90
2019-04-21T18:50:50.930Z,73.40
2019-04-21T18:53:40.982Z,74.90
2019-04-21T18:56:00.080Z,77.30
2019-04-21T18:58:24.287Z,75.40
2019-04-21T19:00:58.287Z,75.60
2019-04-21T19:03:28.254Z,74.00
2019-04-21T19:06:02.794Z,75.40
2019-04-21T19:08:48.471Z,75.50
2019-04-21T19:11:14.882Z,76.40
2019-04-21T19:14:15.405Z,77.20
2019-04-21T19:17:13.178Z,74.70
2019-04-21T19:19:24.660Z,75.70
2019-04-21T19:21:24.281Z,75.60
2019-04-21T19:24:16.666Z,77.20
2019-04-21T19:26:38.019Z,76.60
2019-04-21T19:29:11.266Z,77.00
2019-04-21T19:31:39.889Z,77.80
2019-04-21T19:33:55.674Z,76.20
2019-04-21T19:36:17.227Z,76.80
2019-04-21T19:39:02.294Z,76.90
2019-04-21T19:41:32.492Z,78.40
2019-04-21T19:44:09.328Z,79.50
2019-04-21T19:46:33.552Z,77.90
2019-04-21T19:49:13.409Z,77.60
2019-04-21T19:51:31.087Z,76.00
2019-04-21T19:53:56.082Z,78.90
2019-04-21T19:56:18.557Z,76.60
2019-04-21T19:58:47.874Z,77.20
2019-04-21T20:01:17.515Z,75.70
2019-04-21T20:03:48.607Z,76.20
2019-04-21T20:06:38.000Z,76.40
2019-04-21T20:09:05.703Z,77.30
2019-04-21T20:11:34.664Z,75.70
2019-04-21T20:14:34.731Z,76.30
2019-04-21T20:16:40.424Z,76.60
2019-04-21T20:18:55.321Z,75.60
2019-04-21T20:21:17.810Z,74.50
2019-04-21T20:23:46.687Z,75.80
2019-04-21T20:26:17.054Z,74.60
2019-04-21T20:28:58.852Z,73.80
2019-04-21T20:31:29.353Z,77.30
2019-04-21T20:34:05.124Z,75.70
2019-04-21T20:36:35.517Z,74.40
2019-04-21T20:38:53.574Z,77.60
2019-04-21T20:41:29.667Z,76.80
2019-04-21T20:44:06.220Z,77.80
2019-04-21T20:46:36.886Z,78.60
2019-04-21T20:48:59.989Z,78.40
2019-04-21T20:51:34.848Z,78.90
2019-04-21T20:54:01.530Z,79.60
2019-04-21T20:56:37.031Z,79.60
2019-04-21T20:59:10.930Z,80.30
2019-04-21T21:01:34.880Z,79.90
2019-04-21T21:04:02.307Z,80.40
2019-04-21T21:06:33.168Z,80.90
2019-04-21T21:09:06.109Z,80.30
2019-04-21T21:11:37.019Z,80.50
2019-04-21T21:14:08.879Z,80.50
2019-04-21T21:19:19.186Z,79.30
2019-04-21T21:21:38.422Z,79.90
2019-04-21T21:24:12.688Z,80.00
2019-04-21T21:26:38.228Z,79.20
2019-04-21T21:29:03.833Z,79.90
2019-04-21T21:31:42.736Z,79.60
2019-04-21T21:34:16.578Z,78.00
2019-04-21T21:36:43.450Z,79.30
2019-04-21T21:39:14.306Z,78.50
2019-04-21T21:41:31.766Z,79.20
2019-04-21T21:44:01.780Z,79.30
2019-04-21T21:46:40.372Z,77.80
2019-04-21T21:49:07.557Z,77.30
2019-04-21T21:51:42.283Z,78.40
2019-04-21T21:53:57.081Z,78.40
2019-04-21T21:56:26.741Z,78.10
2019-04-21T21:58:57.109Z,78.60
2019-04-21T22:01:31.870Z,78.20
2019-04-21T22:04:04.847Z,78.70
2019-04-21T22:06:39.651Z,77.70
2019-04-21T22:08:58.252Z,77.40
2019-04-21T22:11:27.374Z,77.00
2019-04-21T22:14:02.818Z,77.10
2019-04-21T22:16:38.857Z,76.40
2019-04-21T22:19:14.294Z,77.00
2019-04-21T22:21:47.723Z,77.00
2019-04-21T22:24:04.781Z,77.40
2019-04-21T22:26:27.310Z,77.00
2019-04-21T22:28:55.938Z,77.20
2019-04-21T22:31:30.082Z,77.10
2019-04-21T22:34:00.900Z,77.80
2019-04-21T22:36:35.354Z,76.90
2019-04-21T22:39:13.380Z,78.00
2019-04-21T22:41:33.803Z,77.50
2019-04-21T22:43:58.972Z,77.20
2019-04-21T22:46:26.426Z,78.10
2019-04-21T22:48:59.509Z,78.60
2019-04-21T22:51:33.317Z,77.20
2019-04-21T22:53:57.598Z,77.10
2019-04-21T22:56:31.321Z,77.60
2019-04-21T22:58:57.139Z,77.20
2019-04-21T23:01:33.422Z,77.80
2019-04-21T23:04:00.880Z,77.60
2019-04-21T23:06:29.447Z,77.50
2019-04-21T23:08:57.085Z,77.70
2019-04-21T23:11:27.965Z,77.40
2019-04-21T23:14:02.502Z,78.20
2019-04-21T23:16:33.286Z,77.40
2019-04-21T23:19:17.017Z,79.60
2019-04-21T23:21:47.029Z,80.90
2019-04-21T23:24:16.178Z,81.90
2019-04-21T23:26:42.979Z,80.70
2019-04-21T23:29:18.520Z,81.30
2019-04-21T23:31:47.103Z,81.00
2019-04-21T23:33:58.071Z,80.80
2019-04-21T23:36:30.106Z,81.50
2019-04-21T23:38:58.500Z,81.60
2019-04-21T23:41:37.336Z,81.80
2019-04-21T23:44:05.519Z,82.40
2019-04-21T23:46:31.947Z,82.10
2019-04-21T23:49:15.119Z,81.60
2019-04-21T23:51:39.626Z,81.90
2019-04-21T23:53:59.506Z,81.90
2019-04-21T23:56:34.036Z,83.00
2019-04-21T23:59:03.156Z,83.10
